Bookmark and Share
Track history (hours):
 

Sharps Island

More information available from US FCC via Universal Licensing System and Coast Guard Vessel Documentation Center.

Last reported at 2014-Mar-22 02:17 UTC. Time now 2014-Apr-17 15:38 UTC.
Position N 38°57' W 076°24'.
Warning: this ship's position is 26 days out of date.

Length 25 m.

Type: Tug. MMSI: 338126265.

NotesDate/timePositionNaut miles runAvg speedWind from/ knotsBaromVisibWave heightAir tempDewpointWater temp
2014-Mar-22 02:17N 38°57' W 076°24'6 8.9
2014-Mar-22 01:33N 38°51' W 076°26'9 8.7
2014-Mar-22 00:34N 38°42' W 076°26'7 6.8
2014-Mar-21 23:33N 38°40' W 076°18'5 4.5
2014-Mar-21 22:33N 38°44' W 076°18'5 4.8
2014-Mar-21 21:33N 38°40' W 076°18'5 5.2
2014-Mar-21 20:33N 38°41' W 076°24'7 7.1
2014-Mar-21 19:33N 38°48' W 076°26'59 5.9
2014-Mar-21 09:33N 39°33' W 075°37'4 4.1
2014-Mar-21 08:33N 39°30' W 075°33'6 6.1
2014-Mar-21 07:30N 39°24' W 075°30'4 0.1
2014-Mar-19 15:30N 39°28' W 075°33'6 6.5
2014-Mar-19 14:33N 39°34' W 075°33'56 7.0
2014-Mar-19 06:30N 38°55' W 076°25'6 6.4
2014-Mar-19 05:33N 38°49' W 076°26'7 6.7
2014-Mar-19 04:33N 38°42' W 076°25'6 5.7
2014-Mar-19 03:33N 38°39' W 076°18'5 5.2
2014-Mar-19 02:33N 38°44' W 076°18'5 5.3
2014-Mar-19 01:33N 38°39' W 076°18'7 6.7
2014-Mar-19 00:33N 38°43' W 076°25'9 8.5
2014-Mar-18 23:33N 38°52' W 076°26'  
2014-Mar-12 02:28N 38°55' W 076°23'  

Dump ship's entire track history

sailing weather and tide predictions

Sharps Island — WDB2219 — position and weather